sensor_id;sensor_type;location;lat;lon;timestamp;temperature;humidity
44731;DHT22;30458;47.448;19.032;2023-04-25T00:06:19;15.00;99.90
44731;DHT22;30458;47.448;19.032;2023-04-25T00:16:22;14.70;99.90
44731;DHT22;30458;47.448;19.032;2023-04-25T00:26:24;14.40;99.90
44731;DHT22;30458;47.448;19.032;2023-04-25T00:36:27;14.50;99.90
44731;DHT22;30458;47.448;19.032;2023-04-25T00:46:29;14.40;99.90
44731;DHT22;30458;47.448;19.032;2023-04-25T00:56:32;14.30;99.90
44731;DHT22;30458;47.448;19.032;2023-04-25T01:06:33;14.00;99.90
44731;DHT22;30458;47.448;19.032;2023-04-25T01:16:36;14.00;99.90
44731;DHT22;30458;47.448;19.032;2023-04-25T01:26:40;13.70;99.90
44731;DHT22;30458;47.448;19.032;2023-04-25T01:36:45;13.50;99.90
44731;DHT22;30458;47.448;19.032;2023-04-25T01:46:47;13.60;99.90
44731;DHT22;30458;47.448;19.032;2023-04-25T01:56:51;13.60;99.90
44731;DHT22;30458;47.448;19.032;2023-04-25T02:06:53;13.60;99.90
44731;DHT22;30458;47.448;19.032;2023-04-25T02:16:58;13.60;99.90
44731;DHT22;30458;47.448;19.032;2023-04-25T02:26:59;13.40;99.90
44731;DHT22;30458;47.448;19.032;2023-04-25T02:37:00;13.40;99.90
44731;DHT22;30458;47.448;19.032;2023-04-25T02:47:01;13.40;99.90
44731;DHT22;30458;47.448;19.032;2023-04-25T02:57:02;13.30;99.90
44731;DHT22;30458;47.448;19.032;2023-04-25T03:07:09;13.40;99.90
44731;DHT22;30458;47.448;19.032;2023-04-25T03:17:10;13.10;99.90
44731;DHT22;30458;47.448;19.032;2023-04-25T03:27:13;13.10;99.90
44731;DHT22;30458;47.448;19.032;2023-04-25T03:37:17;13.10;99.90
44731;DHT22;30458;47.448;19.032;2023-04-25T03:47:18;13.10;99.90
44731;DHT22;30458;47.448;19.032;2023-04-25T03:57:18;12.90;99.90
44731;DHT22;30458;47.448;19.032;2023-04-25T04:07:22;12.90;99.90
44731;DHT22;30458;47.448;19.032;2023-04-25T04:17:28;12.70;99.90
44731;DHT22;30458;47.448;19.032;2023-04-25T04:27:32;12.60;99.90
44731;DHT22;30458;47.448;19.032;2023-04-25T04:38:02;12.60;99.90
44731;DHT22;30458;47.448;19.032;2023-04-25T04:48:07;12.40;99.90
44731;DHT22;30458;47.448;19.032;2023-04-25T04:58:31;12.00;99.90
44731;DHT22;30458;47.448;19.032;2023-04-25T05:08:55;12.00;99.90
44731;DHT22;30458;47.448;19.032;2023-04-25T05:19:15;11.90;99.90
44731;DHT22;30458;47.448;19.032;2023-04-25T05:29:28;11.80;99.90
44731;DHT22;30458;47.448;19.032;2023-04-25T05:39:43;11.50;99.90
44731;DHT22;30458;47.448;19.032;2023-04-25T05:50:01;11.40;99.90
44731;DHT22;30458;47.448;19.032;2023-04-25T06:00:25;11.20;99.90
44731;DHT22;30458;47.448;19.032;2023-04-25T06:10:26;11.20;99.90
44731;DHT22;30458;47.448;19.032;2023-04-25T06:20:26;11.40;99.90
44731;DHT22;30458;47.448;19.032;2023-04-25T06:30:31;11.60;99.90
44731;DHT22;30458;47.448;19.032;2023-04-25T06:40:38;11.70;99.90
44731;DHT22;30458;47.448;19.032;2023-04-25T06:50:41;11.90;99.90
44731;DHT22;30458;47.448;19.032;2023-04-25T07:00:42;12.20;99.90
44731;DHT22;30458;47.448;19.032;2023-04-25T07:10:43;12.30;99.90
44731;DHT22;30458;47.448;19.032;2023-04-25T07:20:49;12.70;99.90
44731;DHT22;30458;47.448;19.032;2023-04-25T07:30:50;13.10;99.90
44731;DHT22;30458;47.448;19.032;2023-04-25T07:40:53;13.30;99.90
44731;DHT22;30458;47.448;19.032;2023-04-25T07:50:56;13.50;99.90
44731;DHT22;30458;47.448;19.032;2023-04-25T08:01:00;13.40;99.90
44731;DHT22;30458;47.448;19.032;2023-04-25T08:11:17;13.60;99.90
44731;DHT22;30458;47.448;19.032;2023-04-25T08:21:18;14.10;99.90
44731;DHT22;30458;47.448;19.032;2023-04-25T08:31:19;14.20;99.90
44731;DHT22;30458;47.448;19.032;2023-04-25T08:41:34;14.30;99.90
44731;DHT22;30458;47.448;19.032;2023-04-25T08:51:44;14.60;99.90
44731;DHT22;30458;47.448;19.032;2023-04-25T09:01:52;14.40;99.90
44731;DHT22;30458;47.448;19.032;2023-04-25T09:11:55;14.50;99.90
44731;DHT22;30458;47.448;19.032;2023-04-25T09:22:03;14.80;99.90
44731;DHT22;30458;47.448;19.032;2023-04-25T09:42:22;15.40;99.90
44731;DHT22;30458;47.448;19.032;2023-04-25T09:52:26;15.30;99.90
44731;DHT22;30458;47.448;19.032;2023-04-25T10:02:38;15.50;99.90
44731;DHT22;30458;47.448;19.032;2023-04-25T10:12:44;15.40;99.90
44731;DHT22;30458;47.448;19.032;2023-04-25T10:22:46;15.40;99.90
44731;DHT22;30458;47.448;19.032;2023-04-25T10:32:48;15.10;99.90
44731;DHT22;30458;47.448;19.032;2023-04-25T10:42:54;15.20;99.90
44731;DHT22;30458;47.448;19.032;2023-04-25T10:53:14;15.50;99.90
44731;DHT22;30458;47.448;19.032;2023-04-25T11:03:21;15.80;98.50
44731;DHT22;30458;47.448;19.032;2023-04-25T11:13:22;15.70;98.40
44731;DHT22;30458;47.448;19.032;2023-04-25T11:23:23;16.00;96.70
44731;DHT22;30458;47.448;19.032;2023-04-25T11:33:25;16.20;96.70
44731;DHT22;30458;47.448;19.032;2023-04-25T11:43:26;16.40;96.20
44731;DHT22;30458;47.448;19.032;2023-04-25T11:53:33;16.10;94.60
44731;DHT22;30458;47.448;19.032;2023-04-25T12:03:45;16.10;95.30
44731;DHT22;30458;47.448;19.032;2023-04-25T12:13:51;15.90;95.00
44731;DHT22;30458;47.448;19.032;2023-04-25T12:23:53;16.10;94.30
44731;DHT22;30458;47.448;19.032;2023-04-25T12:33:54;16.60;92.60
44731;DHT22;30458;47.448;19.032;2023-04-25T12:43:59;16.50;92.10
44731;DHT22;30458;47.448;19.032;2023-04-25T12:54:00;16.40;90.70
44731;DHT22;30458;47.448;19.032;2023-04-25T13:04:00;16.30;90.40
44731;DHT22;30458;47.448;19.032;2023-04-25T13:14:01;16.20;89.20
44731;DHT22;30458;47.448;19.032;2023-04-25T13:24:02;16.40;90.20
44731;DHT22;30458;47.448;19.032;2023-04-25T13:34:03;16.40;86.80
44731;DHT22;30458;47.448;19.032;2023-04-25T13:44:04;16.40;86.40
44731;DHT22;30458;47.448;19.032;2023-04-25T13:54:05;16.40;85.00
44731;DHT22;30458;47.448;19.032;2023-04-25T14:04:05;16.50;84.70
44731;DHT22;30458;47.448;19.032;2023-04-25T14:14:08;16.40;86.20
44731;DHT22;30458;47.448;19.032;2023-04-25T14:24:10;16.30;84.50
44731;DHT22;30458;47.448;19.032;2023-04-25T14:34:13;16.30;82.10
44731;DHT22;30458;47.448;19.032;2023-04-25T14:44:16;16.20;80.60
44731;DHT22;30458;47.448;19.032;2023-04-25T14:54:20;16.30;81.00
44731;DHT22;30458;47.448;19.032;2023-04-25T15:04:23;16.40;81.50
44731;DHT22;30458;47.448;19.032;2023-04-25T15:14:24;16.50;80.10
44731;DHT22;30458;47.448;19.032;2023-04-25T15:24:27;16.60;79.30
44731;DHT22;30458;47.448;19.032;2023-04-25T15:34:27;16.40;80.60
44731;DHT22;30458;47.448;19.032;2023-04-25T15:44:28;16.00;81.60
44731;DHT22;30458;47.448;19.032;2023-04-25T15:54:31;15.80;84.10
44731;DHT22;30458;47.448;19.032;2023-04-25T16:04:32;15.60;88.60
44731;DHT22;30458;47.448;19.032;2023-04-25T16:14:37;15.10;92.10
44731;DHT22;30458;47.448;19.032;2023-04-25T16:24:40;14.80;93.10
44731;DHT22;30458;47.448;19.032;2023-04-25T16:34:43;14.70;93.80
44731;DHT22;30458;47.448;19.032;2023-04-25T16:44:46;14.60;94.20
44731;DHT22;30458;47.448;19.032;2023-04-25T16:54:47;14.70;94.30
44731;DHT22;30458;47.448;19.032;2023-04-25T17:04:50;14.80;94.40
44731;DHT22;30458;47.448;19.032;2023-04-25T17:14:53;14.70;94.60
44731;DHT22;30458;47.448;19.032;2023-04-25T17:24:54;14.70;94.60
44731;DHT22;30458;47.448;19.032;2023-04-25T17:34:55;14.70;94.80
44731;DHT22;30458;47.448;19.032;2023-04-25T17:44:57;14.60;95.40
44731;DHT22;30458;47.448;19.032;2023-04-25T17:54:58;14.60;95.60
44731;DHT22;30458;47.448;19.032;2023-04-25T18:05:02;14.30;96.50
44731;DHT22;30458;47.448;19.032;2023-04-25T18:15:08;14.10;97.20
44731;DHT22;30458;47.448;19.032;2023-04-25T18:25:10;13.80;98.40
44731;DHT22;30458;47.448;19.032;2023-04-25T18:35:14;13.50;99.30
44731;DHT22;30458;47.448;19.032;2023-04-25T18:45:16;13.40;99.80
44731;DHT22;30458;47.448;19.032;2023-04-25T18:55:19;13.40;99.50
44731;DHT22;30458;47.448;19.032;2023-04-25T19:05:23;13.20;99.40
44731;DHT22;30458;47.448;19.032;2023-04-25T19:15:25;13.00;99.10
44731;DHT22;30458;47.448;19.032;2023-04-25T19:25:29;13.00;98.80
44731;DHT22;30458;47.448;19.032;2023-04-25T19:35:29;13.10;98.70
44731;DHT22;30458;47.448;19.032;2023-04-25T19:45:32;13.20;98.40
44731;DHT22;30458;47.448;19.032;2023-04-25T19:55:38;13.40;97.90
44731;DHT22;30458;47.448;19.032;2023-04-25T20:05:39;13.50;97.40
44731;DHT22;30458;47.448;19.032;2023-04-25T20:15:40;13.50;97.40
44731;DHT22;30458;47.448;19.032;2023-04-25T20:25:41;13.50;97.30
44731;DHT22;30458;47.448;19.032;2023-04-25T20:35:45;13.40;97.50
44731;DHT22;30458;47.448;19.032;2023-04-25T20:45:51;13.40;97.60
44731;DHT22;30458;47.448;19.032;2023-04-25T20:55:52;13.40;97.90
44731;DHT22;30458;47.448;19.032;2023-04-25T21:05:53;13.40;97.70
44731;DHT22;30458;47.448;19.032;2023-04-25T21:15:59;13.40;97.90
44731;DHT22;30458;47.448;19.032;2023-04-25T21:26:00;13.30;98.20
44731;DHT22;30458;47.448;19.032;2023-04-25T21:36:01;13.20;98.40
44731;DHT22;30458;47.448;19.032;2023-04-25T21:46:02;12.90;98.80
44731;DHT22;30458;47.448;19.032;2023-04-25T21:56:03;12.70;99.00
44731;DHT22;30458;47.448;19.032;2023-04-25T22:06:03;12.60;99.30
44731;DHT22;30458;47.448;19.032;2023-04-25T22:16:09;12.40;99.90
44731;DHT22;30458;47.448;19.032;2023-04-25T22:26:11;12.50;99.90
44731;DHT22;30458;47.448;19.032;2023-04-25T22:36:12;12.20;99.90
44731;DHT22;30458;47.448;19.032;2023-04-25T22:46:17;12.10;99.90
44731;DHT22;30458;47.448;19.032;2023-04-25T22:56:20;12.20;99.90
44731;DHT22;30458;47.448;19.032;2023-04-25T23:06:21;12.20;99.90
44731;DHT22;30458;47.448;19.032;2023-04-25T23:16:25;12.40;99.90
44731;DHT22;30458;47.448;19.032;2023-04-25T23:26:28;12.40;99.90
44731;DHT22;30458;47.448;19.032;2023-04-25T23:36:29;12.50;99.90
44731;DHT22;30458;47.448;19.032;2023-04-25T23:46:29;12.60;99.90
44731;DHT22;30458;47.448;19.032;2023-04-25T23:56:33;12.60;99.90
